Time;durP1;ratioP1;P1;durP2;ratioP2;P2;SDS_P1;SDS_P2;PMS_P1;PMS_P2;Temp;Humidity;BMP_temperature;BMP_pressure;BME280_temperature;BME280_humidity;BME280_pressure;Samples;Min_cycle;Max_cycle;Signal;HPM_P1;HPM_P2
2021/11/03 00:00:45;;;;;;;;;;;8.70;69.50;;;;;;6273598;22;20215;-73
2021/11/03 00:03:11;;;;;;;;;;;8.70;69.50;;;;;;6273796;22;19921;-71
2021/11/03 00:05:46;;;;;;;;;;;8.60;69.40;;;;;;6275290;22;19923;-71
2021/11/03 00:08:12;;;;;;;;;;;8.60;69.50;;;;;;6276102;22;19927;-71
2021/11/03 00:10:41;;;;;;;;;;;8.60;69.50;;;;;;6275574;22;19906;-73
2021/11/03 00:13:08;;;;;;;;;;;8.60;69.60;;;;;;6275315;22;19914;-72
2021/11/03 00:15:34;;;;;;;;;;;8.50;69.60;;;;;;6276368;22;19910;-70
2021/11/03 00:17:59;;;;;;;;;;;8.50;70.30;;;;;;6276507;22;19899;-71
2021/11/03 00:20:25;;;;;;;;;;;8.50;69.50;;;;;;6278193;22;19903;-72
2021/11/03 00:22:50;;;;;;;;;;;8.50;69.60;;;;;;6276346;22;20212;-71
2021/11/03 00:25:16;;;;;;;;;;;8.40;69.60;;;;;;6278167;22;19949;-72
2021/11/03 00:27:42;;;;;;;;;;;8.50;69.60;;;;;;6278149;22;19906;-71
2021/11/03 00:30:07;;;;;;;;;;;8.40;69.60;;;;;;6276590;22;19906;-71
2021/11/03 00:32:33;;;;;;;;;;;8.40;69.80;;;;;;6277816;22;20272;-70
2021/11/03 00:34:59;;;;;;;;;;;8.40;69.80;;;;;;6277916;22;19906;-72
2021/11/03 00:37:24;;;;;;;;;;;8.40;69.90;;;;;;6277968;22;20235;-70
2021/11/03 00:39:50;;;;;;;;;;;8.40;69.90;;;;;;6276327;22;19903;-72
2021/11/03 00:42:15;;;;;;;;;;;8.40;70.00;;;;;;6276380;22;19953;-70
2021/11/03 00:44:41;;;;;;;;;;;8.40;69.90;;;;;;6278090;22;19895;-70
2021/11/03 00:47:07;;;;;;;;;;;8.30;69.80;;;;;;6278248;22;19953;-70
2021/11/03 00:49:32;;;;;;;;;;;8.30;69.80;;;;;;6277937;22;19899;-72
2021/11/03 00:51:58;;;;;;;;;;;8.30;69.80;;;;;;6277771;22;19896;-72
2021/11/03 00:54:24;;;;;;;;;;;8.30;69.80;;;;;;6277863;22;19903;-71
2021/11/03 00:56:50;;;;;;;;;;;8.30;69.80;;;;;;6277896;22;19895;-71
2021/11/03 00:59:15;;;;;;;;;;;8.20;69.80;;;;;;6277647;22;19910;-70
2021/11/03 01:01:41;;;;;;;;;;;8.20;69.80;;;;;;6277866;22;19900;-72
2021/11/03 01:04:07;;;;;;;;;;;8.20;69.80;;;;;;6277847;22;19907;-69
2021/11/03 01:06:33;;;;;;;;;;;8.20;69.80;;;;;;6277793;22;19899;-71
2021/11/03 01:08:59;;;;;;;;;;;8.20;69.90;;;;;;6276138;22;19903;-71
2021/11/03 01:11:25;;;;;;;;;;;8.20;69.90;;;;;;6277694;22;20226;-72
2021/11/03 01:13:50;;;;;;;;;;;8.10;69.80;;;;;;6277511;22;19933;-71
2021/11/03 01:16:16;;;;;;;;;;;8.10;69.80;;;;;;6277766;22;19899;-71
2021/11/03 01:18:45;;;;;;;;;;;8.10;70.60;;;;;;6277571;22;20315;-71
2021/11/03 01:21:11;;;;;;;;;;;8.10;69.80;;;;;;6277626;22;20021;-71
2021/11/03 01:23:36;;;;;;;;;;;8.00;69.80;;;;;;6275866;22;19930;-71
2021/11/03 01:26:02;;;;;;;;;;;8.00;69.80;;;;;;6277594;22;19899;-70
2021/11/03 01:28:28;;;;;;;;;;;8.00;69.80;;;;;;6275785;22;19923;-71
2021/11/03 01:30:55;;;;;;;;;;;8.00;69.90;;;;;;6277552;22;20231;-71
2021/11/03 01:33:21;;;;;;;;;;;8.00;69.80;;;;;;6277485;22;20300;-70
2021/11/03 01:35:47;;;;;;;;;;;7.90;69.80;;;;;;6277599;22;20273;-70
2021/11/03 01:38:13;;;;;;;;;;;7.90;69.80;;;;;;6277296;22;19899;-71
2021/11/03 01:40:40;;;;;;;;;;;7.90;69.80;;;;;;6277299;22;20032;-70
2021/11/03 01:43:08;;;;;;;;;;;7.90;69.90;;;;;;6277598;22;19926;-69
2021/11/03 01:45:34;;;;;;;;;;;7.80;69.80;;;;;;6277536;22;19907;-70
2021/11/03 01:48:04;;;;;;;;;;;7.90;69.90;;;;;;6277424;22;19899;-73
2021/11/03 01:50:32;;;;;;;;;;;7.80;69.80;;;;;;6277550;22;19899;-70
2021/11/03 01:53:01;;;;;;;;;;;7.80;69.80;;;;;;6277336;22;19903;-71
2021/11/03 01:55:28;;;;;;;;;;;7.80;69.90;;;;;;6277251;22;19957;-72
2021/11/03 01:58:00;;;;;;;;;;;7.80;69.90;;;;;;6277194;22;19899;-71
2021/11/03 02:00:28;;;;;;;;;;;7.70;69.80;;;;;;6277292;22;19910;-70
2021/11/03 02:02:55;;;;;;;;;;;7.70;69.90;;;;;;6277101;22;20303;-71
2021/11/03 02:05:21;;;;;;;;;;;7.70;69.90;;;;;;6277063;22;19985;-72
2021/11/03 02:07:48;;;;;;;;;;;7.70;69.90;;;;;;6276926;22;19899;-70
2021/11/03 02:10:14;;;;;;;;;;;7.70;69.90;;;;;;6276954;22;19906;-72
2021/11/03 02:12:40;;;;;;;;;;;7.70;70.00;;;;;;6276872;22;20306;-72
2021/11/03 02:15:06;;;;;;;;;;;7.70;70.00;;;;;;6276802;22;20242;-70
2021/11/03 02:17:32;;;;;;;;;;;7.60;69.80;;;;;;6276894;22;19899;-71
2021/11/03 02:19:59;;;;;;;;;;;7.70;69.90;;;;;;6276694;22;19911;-70
2021/11/03 02:22:25;;;;;;;;;;;7.60;70.00;;;;;;6276495;22;19903;-71
2021/11/03 02:25:05;;;;;;;;;;;7.60;70.00;;;;;;6276959;22;19906;-72
2021/11/03 02:27:32;;;;;;;;;;;7.60;70.00;;;;;;6277143;22;19906;-71
2021/11/03 02:29:58;;;;;;;;;;;7.60;70.10;;;;;;6277089;22;19895;-71
2021/11/03 02:32:25;;;;;;;;;;;7.60;70.10;;;;;;6276471;22;19899;-70
2021/11/03 02:34:51;;;;;;;;;;;7.50;70.10;;;;;;6276904;22;19899;-72
2021/11/03 02:37:32;;;;;;;;;;;7.50;70.20;;;;;;6276788;22;19899;-71
2021/11/03 02:40:17;;;;;;;;;;;7.50;70.30;;;;;;6275078;22;20312;-71
2021/11/03 02:42:46;;;;;;;;;;;7.50;70.50;;;;;;6277063;22;19906;-71
2021/11/03 02:45:24;;;;;;;;;;;7.50;70.60;;;;;;6276882;22;19934;-70
2021/11/03 02:47:50;;;;;;;;;;;7.60;70.80;;;;;;6276833;22;19899;-72
2021/11/03 02:50:16;;;;;;;;;;;7.50;70.80;;;;;;6275106;22;19899;-73
2021/11/03 02:52:41;;;;;;;;;;;7.60;70.90;;;;;;6276844;22;19895;-72
2021/11/03 02:55:08;;;;;;;;;;;7.60;70.90;;;;;;6276879;22;19930;-71
2021/11/03 02:57:34;;;;;;;;;;;7.60;70.70;;;;;;6276862;22;19930;-72
2021/11/03 03:00:01;;;;;;;;;;;7.60;70.70;;;;;;6276753;22;19949;-71
2021/11/03 03:02:27;;;;;;;;;;;7.60;70.70;;;;;;6275050;22;19989;-70
2021/11/03 03:04:54;;;;;;;;;;;7.60;70.70;;;;;;6276761;22;20056;-70
2021/11/03 03:07:20;;;;;;;;;;;7.60;70.60;;;;;;6275045;22;19899;-71
2021/11/03 03:09:46;;;;;;;;;;;7.60;70.50;;;;;;6274784;22;19978;-72
2021/11/03 03:12:14;;;;;;;;;;;7.50;70.30;;;;;;6276593;22;19904;-72
2021/11/03 03:14:41;;;;;;;;;;;7.50;70.20;;;;;;6275372;22;19918;-71
2021/11/03 03:17:09;;;;;;;;;;;7.50;70.20;;;;;;6275589;22;19900;-73
2021/11/03 03:19:35;;;;;;;;;;;7.50;70.10;;;;;;6275454;22;19909;-71
2021/11/03 03:22:00;;;;;;;;;;;7.50;70.20;;;;;;6275251;22;19978;-71
2021/11/03 03:24:26;;;;;;;;;;;7.50;70.30;;;;;;6275178;22;20286;-70
2021/11/03 03:26:51;;;;;;;;;;;7.50;70.40;;;;;;6275404;22;19903;-72
2021/11/03 03:29:17;;;;;;;;;;;7.50;70.60;;;;;;6275135;22;20235;-71
2021/11/03 03:31:43;;;;;;;;;;;7.50;70.70;;;;;;6275162;22;19992;-72
2021/11/03 03:34:12;;;;;;;;;;;7.60;70.80;;;;;;6275304;22;19911;-71
2021/11/03 03:36:38;;;;;;;;;;;7.60;70.70;;;;;;6275267;22;19899;-69
2021/11/03 03:39:05;;;;;;;;;;;7.60;70.60;;;;;;6275071;22;19911;-70
2021/11/03 03:41:31;;;;;;;;;;;7.60;70.60;;;;;;6273510;22;19949;-72
2021/11/03 03:43:57;;;;;;;;;;;7.60;70.50;;;;;;6274959;22;20307;-71
2021/11/03 03:46:23;;;;;;;;;;;7.60;70.40;;;;;;6275146;22;20289;-71
2021/11/03 03:48:49;;;;;;;;;;;7.60;70.30;;;;;;6274984;22;19902;-71
2021/11/03 03:51:15;;;;;;;;;;;7.50;70.20;;;;;;6272416;22;20235;-70
2021/11/03 03:53:41;;;;;;;;;;;7.50;70.20;;;;;;6273461;22;19895;-70
2021/11/03 03:56:07;;;;;;;;;;;7.50;70.10;;;;;;6273225;22;19948;-70
2021/11/03 03:58:33;;;;;;;;;;;7.40;70.10;;;;;;6273267;22;20235;-70
2021/11/03 04:00:58;;;;;;;;;;;7.40;70.10;;;;;;6274954;22;19906;-70
2021/11/03 04:03:24;;;;;;;;;;;7.40;70.10;;;;;;6274762;22;19969;-70
2021/11/03 04:05:50;;;;;;;;;;;7.40;70.10;;;;;;6275182;22;19930;-71
2021/11/03 04:08:16;;;;;;;;;;;7.40;70.20;;;;;;6274803;22;19903;-72
2021/11/03 04:10:43;;;;;;;;;;;7.40;70.20;;;;;;6274803;22;20242;-72
2021/11/03 04:13:09;;;;;;;;;;;7.30;70.20;;;;;;6222707;22;1199960;-71
2021/11/03 04:15:35;;;;;;;;;;;7.30;70.30;;;;;;6276279;22;19902;-71
2021/11/03 04:18:01;;;;;;;;;;;7.30;70.40;;;;;;6276011;22;19903;-71
2021/11/03 04:20:27;;;;;;;;;;;7.40;70.50;;;;;;6276053;22;19903;-72
2021/11/03 04:22:52;;;;;;;;;;;7.40;70.50;;;;;;6274356;22;20308;-71
2021/11/03 04:25:18;;;;;;;;;;;7.30;70.50;;;;;;6276111;22;19906;-71
2021/11/03 04:27:44;;;;;;;;;;;7.40;70.60;;;;;;6276212;22;19899;-71
2021/11/03 04:30:11;;;;;;;;;;;7.40;70.60;;;;;;6276141;22;19899;-72
2021/11/03 04:32:36;;;;;;;;;;;7.40;70.70;;;;;;6275941;22;19945;-72
2021/11/03 04:35:03;;;;;;;;;;;7.30;70.60;;;;;;6275981;22;20273;-73
2021/11/03 04:37:28;;;;;;;;;;;7.40;70.70;;;;;;6275999;22;19953;-72
2021/11/03 04:39:54;;;;;;;;;;;7.40;70.80;;;;;;6275912;22;19903;-70
2021/11/03 04:42:20;;;;;;;;;;;7.40;70.80;;;;;;6276202;22;19931;-71
2021/11/03 04:44:46;;;;;;;;;;;7.40;70.80;;;;;;6275948;22;19899;-71
2021/11/03 04:47:11;;;;;;;;;;;7.40;70.90;;;;;;6274530;22;19905;-70
2021/11/03 04:49:37;;;;;;;;;;;7.40;70.90;;;;;;6275851;22;19899;-71
2021/11/03 04:52:03;;;;;;;;;;;7.40;70.90;;;;;;6275882;22;19903;-69
2021/11/03 04:54:28;;;;;;;;;;;7.40;70.90;;;;;;6274234;22;19926;-73
2021/11/03 04:56:54;;;;;;;;;;;7.40;70.90;;;;;;6274455;22;19899;-72
2021/11/03 04:59:20;;;;;;;;;;;7.40;70.90;;;;;;6274382;22;19909;-72
2021/11/03 05:01:45;;;;;;;;;;;7.40;70.90;;;;;;6274803;22;19899;-70
2021/11/03 05:04:11;;;;;;;;;;;7.50;71.00;;;;;;6277889;22;19900;-72
2021/11/03 05:06:38;;;;;;;;;;;7.50;71.00;;;;;;6275790;22;19903;-70
2021/11/03 05:09:05;;;;;;;;;;;7.50;71.00;;;;;;6277526;22;19899;-71
2021/11/03 05:11:31;;;;;;;;;;;7.50;71.00;;;;;;6277576;22;19952;-72
2021/11/03 05:13:57;;;;;;;;;;;7.50;70.90;;;;;;6275897;22;19989;-73
2021/11/03 05:16:25;;;;;;;;;;;7.50;70.90;;;;;;6276100;22;19899;-71
2021/11/03 05:18:50;;;;;;;;;;;7.50;70.90;;;;;;6277236;22;19896;-72
2021/11/03 05:21:16;;;;;;;;;;;7.50;70.90;;;;;;6277335;22;19950;-71
2021/11/03 05:23:42;;;;;;;;;;;7.60;71.00;;;;;;6277283;22;19902;-71
2021/11/03 05:26:08;;;;;;;;;;;7.50;71.00;;;;;;6275969;22;19899;-72
2021/11/03 05:28:35;;;;;;;;;;;7.50;70.90;;;;;;6277484;22;19907;-71
2021/11/03 05:31:01;;;;;;;;;;;7.50;70.90;;;;;;6277610;22;20273;-71
2021/11/03 05:33:27;;;;;;;;;;;7.50;70.90;;;;;;6277523;22;19923;-70
2021/11/03 05:35:53;;;;;;;;;;;7.50;70.90;;;;;;6277369;22;19922;-70
2021/11/03 05:38:18;;;;;;;;;;;7.50;70.90;;;;;;6277430;22;20235;-73
2021/11/03 05:40:44;;;;;;;;;;;7.50;70.80;;;;;;6276869;22;19953;-71
2021/11/03 05:43:10;;;;;;;;;;;7.50;70.80;;;;;;6277252;22;19907;-70
2021/11/03 05:45:36;;;;;;;;;;;7.50;70.70;;;;;;6277244;22;20315;-73
2021/11/03 05:48:01;;;;;;;;;;;7.50;70.60;;;;;;6277033;22;19906;-73
2021/11/03 05:50:29;;;;;;;;;;;7.50;70.70;;;;;;6277377;22;20334;-71
2021/11/03 05:52:54;;;;;;;;;;;7.50;70.60;;;;;;6277269;22;19978;-72
2021/11/03 05:55:21;;;;;;;;;;;7.50;70.60;;;;;;6275858;22;19981;-72
2021/11/03 05:57:47;;;;;;;;;;;7.50;70.60;;;;;;6277241;22;20303;-71
2021/11/03 06:00:15;;;;;;;;;;;7.40;70.60;;;;;;6276999;22;19938;-71
2021/11/03 06:02:41;;;;;;;;;;;7.40;70.60;;;;;;6276984;22;19931;-71
2021/11/03 06:05:08;;;;;;;;;;;7.40;70.70;;;;;;6277031;22;19906;-71
2021/11/03 06:07:33;;;;;;;;;;;7.40;70.80;;;;;;6276867;22;19948;-73
2021/11/03 06:10:00;;;;;;;;;;;7.40;70.80;;;;;;6276774;22;19982;-72
2021/11/03 06:12:26;;;;;;;;;;;7.40;70.80;;;;;;6274086;22;19903;-70
2021/11/03 06:14:51;;;;;;;;;;;7.40;70.80;;;;;;6276246;22;19911;-71
2021/11/03 06:17:17;;;;;;;;;;;7.40;70.90;;;;;;6276587;22;19906;-71
2021/11/03 06:19:43;;;;;;;;;;;7.50;71.00;;;;;;6275847;22;19950;-73
2021/11/03 06:22:08;;;;;;;;;;;7.50;71.00;;;;;;6276565;22;20029;-70
2021/11/03 06:24:36;;;;;;;;;;;7.50;71.00;;;;;;6276829;22;19895;-71
2021/11/03 06:27:03;;;;;;;;;;;7.50;71.20;;;;;;6276660;22;20311;-72
2021/11/03 06:29:28;;;;;;;;;;;7.60;71.40;;;;;;6276734;22;19895;-73
2021/11/03 06:31:54;;;;;;;;;;;7.60;71.50;;;;;;6276832;22;20274;-71
2021/11/03 06:34:20;;;;;;;;;;;7.70;71.60;;;;;;6275191;22;20376;-73
2021/11/03 06:36:45;;;;;;;;;;;7.70;71.60;;;;;;6274756;22;19902;-72
2021/11/03 06:39:11;;;;;;;;;;;7.70;71.70;;;;;;6276000;22;19903;-72
2021/11/03 06:41:37;;;;;;;;;;;7.80;71.70;;;;;;6276056;22;19903;-71
2021/11/03 06:44:03;;;;;;;;;;;7.80;71.70;;;;;;6276171;22;19907;-71
2021/11/03 06:46:28;;;;;;;;;;;7.90;71.90;;;;;;6276474;22;20208;-73
2021/11/03 06:48:54;;;;;;;;;;;8.00;71.90;;;;;;6276782;22;19903;-72
2021/11/03 06:51:20;;;;;;;;;;;8.00;72.00;;;;;;6276779;22;19899;-73
2021/11/03 06:53:45;;;;;;;;;;;8.10;72.00;;;;;;6276401;22;20017;-74
2021/11/03 06:56:12;;;;;;;;;;;8.10;72.00;;;;;;6276582;22;19906;-73
2021/11/03 06:58:38;;;;;;;;;;;8.20;72.10;;;;;;6276173;22;19906;-72
2021/11/03 07:01:05;;;;;;;;;;;8.30;72.20;;;;;;6276627;22;19974;-71
2021/11/03 07:03:31;;;;;;;;;;;8.30;72.20;;;;;;6276405;22;20357;-71
2021/11/03 07:05:57;;;;;;;;;;;8.40;72.30;;;;;;6276438;22;19999;-72
2021/11/03 07:08:23;;;;;;;;;;;8.50;72.30;;;;;;6276081;22;19945;-72
2021/11/03 07:10:50;;;;;;;;;;;8.50;72.30;;;;;;6276404;22;19899;-71
2021/11/03 07:13:16;;;;;;;;;;;8.60;72.40;;;;;;6276124;22;19911;-72
2021/11/03 07:15:42;;;;;;;;;;;8.70;72.40;;;;;;6276240;22;19922;-71
2021/11/03 07:18:08;;;;;;;;;;;8.70;72.40;;;;;;6274690;22;19949;-72
2021/11/03 07:20:34;;;;;;;;;;;8.80;72.50;;;;;;6276180;22;20249;-73
2021/11/03 07:23:00;;;;;;;;;;;8.90;72.50;;;;;;6275856;22;19899;-73
2021/11/03 07:25:26;;;;;;;;;;;9.00;72.50;;;;;;6275672;22;19895;-73
2021/11/03 07:27:52;;;;;;;;;;;9.00;72.50;;;;;;6276153;22;19899;-73
2021/11/03 07:30:19;;;;;;;;;;;9.10;72.50;;;;;;6275895;22;19902;-73
2021/11/03 07:32:45;;;;;;;;;;;9.20;72.50;;;;;;6276021;22;19900;-71
2021/11/03 07:35:10;;;;;;;;;;;9.20;72.50;;;;;;6276453;22;19953;-72
2021/11/03 07:37:37;;;;;;;;;;;9.30;72.50;;;;;;6275997;22;19970;-71
2021/11/03 07:40:03;;;;;;;;;;;9.40;72.50;;;;;;6274353;22;20034;-73
2021/11/03 07:42:29;;;;;;;;;;;9.50;72.50;;;;;;6276191;22;19899;-71
2021/11/03 07:44:55;;;;;;;;;;;9.60;72.30;;;;;;6276241;22;19903;-73
2021/11/03 07:47:20;;;;;;;;;;;9.60;72.30;;;;;;6275831;22;19899;-73
2021/11/03 07:49:46;;;;;;;;;;;9.70;72.20;;;;;;6276371;22;19906;-71
2021/11/03 07:52:11;;;;;;;;;;;9.70;72.10;;;;;;6276175;22;20330;-71
2021/11/03 07:54:37;;;;;;;;;;;9.80;72.10;;;;;;6275941;22;19927;-72
2021/11/03 07:57:03;;;;;;;;;;;9.90;72.00;;;;;;6276079;22;19899;-72
2021/11/03 07:59:28;;;;;;;;;;;9.90;71.90;;;;;;6275359;22;19903;-73
2021/11/03 08:01:54;;;;;;;;;;;10.00;71.90;;;;;;6276399;22;19938;-70
2021/11/03 08:04:20;;;;;;;;;;;10.00;71.90;;;;;;6275924;22;19895;-72
2021/11/03 08:06:47;;;;;;;;;;;10.10;71.80;;;;;;6275967;22;20218;-72
2021/11/03 08:09:13;;;;;;;;;;;10.10;71.70;;;;;;6274308;22;20216;-70
2021/11/03 08:11:51;;;;;;;;;;;10.20;71.60;;;;;;6276220;22;19899;-72
2021/11/03 08:14:18;;;;;;;;;;;10.30;71.60;;;;;;6275314;22;19915;-71
2021/11/03 08:16:48;;;;;;;;;;;10.30;71.50;;;;;;6275679;22;19903;-70
2021/11/03 08:19:14;;;;;;;;;;;10.40;71.60;;;;;;6276164;22;19982;-73
2021/11/03 08:21:40;;;;;;;;;;;10.50;71.40;;;;;;6276070;22;19907;-72
2021/11/03 08:24:05;;;;;;;;;;;10.50;71.40;;;;;;6276018;22;19919;-72
2021/11/03 08:26:31;;;;;;;;;;;10.60;71.50;;;;;;6275027;22;19899;-70
2021/11/03 08:28:57;;;;;;;;;;;10.70;71.50;;;;;;6276884;22;20328;-73
2021/11/03 08:31:22;;;;;;;;;;;10.70;71.50;;;;;;6275900;22;19899;-71
2021/11/03 08:33:49;;;;;;;;;;;10.80;71.60;;;;;;6273918;22;19998;-71
2021/11/03 08:36:16;;;;;;;;;;;10.90;71.70;;;;;;6275888;22;19906;-73
2021/11/03 08:38:42;;;;;;;;;;;11.00;71.80;;;;;;6277983;22;19907;-71
2021/11/03 08:41:07;;;;;;;;;;;11.00;71.40;;;;;;6278223;22;19899;-73
2021/11/03 08:43:34;;;;;;;;;;;11.10;71.10;;;;;;6277734;22;20211;-74
2021/11/03 08:46:00;;;;;;;;;;;11.20;71.00;;;;;;6277929;22;20327;-71
2021/11/03 08:48:26;;;;;;;;;;;11.20;71.00;;;;;;6277826;22;19906;-72
2021/11/03 08:50:52;;;;;;;;;;;11.30;71.20;;;;;;6277772;22;19906;-73
2021/11/03 08:53:18;;;;;;;;;;;11.40;71.40;;;;;;6277710;22;19899;-71
2021/11/03 08:55:45;;;;;;;;;;;11.50;71.70;;;;;;6277665;22;19899;-72
2021/11/03 08:58:12;;;;;;;;;;;11.70;72.20;;;;;;6277653;22;19903;-72
2021/11/03 09:00:39;;;;;;;;;;;11.80;72.30;;;;;;6277497;22;19956;-73
2021/11/03 09:03:04;;;;;;;;;;;12.00;72.10;;;;;;6275974;22;19899;-72
2021/11/03 09:05:30;;;;;;;;;;;12.10;71.70;;;;;;6277498;22;19921;-71
2021/11/03 09:07:56;;;;;;;;;;;12.20;71.20;;;;;;6276121;22;19968;-71
2021/11/03 09:10:23;;;;;;;;;;;12.30;70.60;;;;;;6277732;22;19919;-71
2021/11/03 09:12:49;;;;;;;;;;;12.40;70.10;;;;;;6277206;22;19899;-70
2021/11/03 09:15:15;;;;;;;;;;;12.40;69.80;;;;;;6277094;22;20239;-73
2021/11/03 09:17:41;;;;;;;;;;;12.40;69.50;;;;;;6277520;22;19949;-73
2021/11/03 09:20:07;;;;;;;;;;;12.50;69.70;;;;;;6275631;22;19985;-72
2021/11/03 09:22:36;;;;;;;;;;;12.50;69.80;;;;;;6276926;22;19899;-72
2021/11/03 09:25:02;;;;;;;;;;;12.60;69.90;;;;;;6277277;22;19978;-73
2021/11/03 09:27:28;;;;;;;;;;;12.60;69.80;;;;;;6277594;22;19953;-71
2021/11/03 09:29:53;;;;;;;;;;;12.60;69.50;;;;;;6277269;22;19899;-71
2021/11/03 09:32:21;;;;;;;;;;;12.60;69.30;;;;;;6277034;22;19903;-72
2021/11/03 09:34:51;;;;;;;;;;;12.60;69.40;;;;;;6277459;22;19906;-72
2021/11/03 09:37:18;;;;;;;;;;;12.70;69.40;;;;;;6276727;22;19922;-73
2021/11/03 09:39:44;;;;;;;;;;;12.70;69.20;;;;;;6277295;22;19903;-72
2021/11/03 09:42:12;;;;;;;;;;;12.80;69.40;;;;;;6277227;22;19906;-75
2021/11/03 09:44:37;;;;;;;;;;;12.80;69.40;;;;;;6277419;22;19948;-71
2021/11/03 09:47:20;;;;;;;;;;;12.90;69.50;;;;;;6277313;22;19903;-73
2021/11/03 09:49:47;;;;;;;;;;;13.00;69.60;;;;;;6277506;22;19945;-71
2021/11/03 09:52:15;;;;;;;;;;;13.10;69.70;;;;;;6277596;22;19899;-73
2021/11/03 09:54:43;;;;;;;;;;;13.20;69.90;;;;;;6277304;22;20287;-75
2021/11/03 09:57:18;;;;;;;;;;;13.30;69.90;;;;;;6277631;22;19899;-72
2021/11/03 09:59:49;;;;;;;;;;;13.40;70.10;;;;;;6277424;22;19925;-71
2021/11/03 10:02:21;;;;;;;;;;;13.50;69.90;;;;;;6277531;22;20234;-72
2021/11/03 10:04:51;;;;;;;;;;;13.60;69.70;;;;;;6277409;22;19922;-76
2021/11/03 10:07:35;;;;;;;;;;;13.70;69.50;;;;;;6277444;22;20325;-76
2021/11/03 10:10:09;;;;;;;;;;;13.90;69.60;;;;;;6277257;22;19903;-75
2021/11/03 10:12:34;;;;;;;;;;;14.00;69.30;;;;;;6277216;22;19905;-74
2021/11/03 10:15:00;;;;;;;;;;;14.10;68.90;;;;;;6276707;22;20306;-74
2021/11/03 10:17:28;;;;;;;;;;;14.20;68.10;;;;;;6277156;22;19937;-73
2021/11/03 10:19:54;;;;;;;;;;;14.30;68.00;;;;;;6277046;22;19903;-74
2021/11/03 10:22:28;;;;;;;;;;;14.40;68.30;;;;;;6277139;22;19899;-73
2021/11/03 10:24:58;;;;;;;;;;;14.50;68.50;;;;;;6277151;22;19906;-76
2021/11/03 10:27:24;;;;;;;;;;;14.70;68.80;;;;;;6277391;22;19899;-76
2021/11/03 10:29:52;;;;;;;;;;;14.80;69.00;;;;;;6277281;22;19906;-75
2021/11/03 10:32:17;;;;;;;;;;;15.00;69.10;;;;;;6276899;22;19974;-76
2021/11/03 10:34:45;;;;;;;;;;;15.10;68.70;;;;;;6276771;22;19937;-78
2021/11/03 10:37:11;;;;;;;;;;;15.20;69.20;;;;;;6277285;22;19986;-79
2021/11/03 10:39:38;;;;;;;;;;;15.30;68.20;;;;;;6276897;22;19903;-74
2021/11/03 10:42:04;;;;;;;;;;;15.50;68.00;;;;;;6276787;22;20277;-77
2021/11/03 10:44:31;;;;;;;;;;;15.60;68.80;;;;;;6276790;22;19895;-76
2021/11/03 10:47:07;;;;;;;;;;;15.70;67.80;;;;;;6276984;22;19906;-78
2021/11/03 10:50:03;;;;;;;;;;;15.90;67.90;;;;;;6277043;22;20386;-79
2021/11/03 10:52:32;;;;;;;;;;;15.90;67.70;;;;;;6276201;22;19899;-77
2021/11/03 10:54:59;;;;;;;;;;;16.10;66.50;;;;;;6276717;22;19945;-80
2021/11/03 10:57:27;;;;;;;;;;;16.10;66.00;;;;;;6276713;22;19899;-80
2021/11/03 11:00:12;;;;;;;;;;;16.20;66.20;;;;;;6276383;22;20334;-76
2021/11/03 11:02:45;;;;;;;;;;;16.30;66.00;;;;;;6276538;22;20204;-76
2021/11/03 11:05:17;;;;;;;;;;;16.30;65.70;;;;;;6276807;22;19899;-78
2021/11/03 11:07:46;;;;;;;;;;;16.30;65.30;;;;;;6276816;22;19899;-81
2021/11/03 11:10:35;;;;;;;;;;;16.40;65.40;;;;;;6276744;22;19899;-80
2021/11/03 11:13:03;;;;;;;;;;;16.40;65.50;;;;;;6276448;22;19989;-76
2021/11/03 11:15:32;;;;;;;;;;;16.40;65.30;;;;;;6276034;22;19965;-78
2021/11/03 11:18:22;;;;;;;;;;;16.40;64.90;;;;;;6276462;22;19899;-77
2021/11/03 11:20:52;;;;;;;;;;;16.40;64.70;;;;;;6275740;22;19909;-77
2021/11/03 11:23:20;;;;;;;;;;;16.40;64.50;;;;;;6276442;22;19940;-80
2021/11/03 11:25:58;;;;;;;;;;;16.30;64.60;;;;;;6276722;22;20231;-76
2021/11/03 11:28:34;;;;;;;;;;;16.30;64.70;;;;;;6276616;22;19903;-75
2021/11/03 11:31:06;;;;;;;;;;;16.30;64.40;;;;;;6276799;22;19899;-80
2021/11/03 11:33:36;;;;;;;;;;;16.30;64.60;;;;;;6276255;22;19906;-79
2021/11/03 11:36:04;;;;;;;;;;;16.40;64.80;;;;;;6276553;22;19903;-76
2021/11/03 11:38:39;;;;;;;;;;;16.40;65.00;;;;;;6277678;22;19899;-76
2021/11/03 11:41:23;;;;;;;;;;;16.50;64.90;;;;;;6281243;22;19903;-78
2021/11/03 11:43:51;;;;;;;;;;;16.60;65.20;;;;;;6281406;22;19994;-77
2021/11/03 11:46:18;;;;;;;;;;;16.70;65.20;;;;;;6281787;22;20371;-76
2021/11/03 11:48:45;;;;;;;;;;;16.80;65.10;;;;;;6282117;22;20234;-78
2021/11/03 11:51:13;;;;;;;;;;;16.90;64.90;;;;;;6280898;22;19947;-79
2021/11/03 11:53:47;;;;;;;;;;;16.90;63.60;;;;;;6279217;22;19899;-78
2021/11/03 11:56:21;;;;;;;;;;;17.00;63.10;;;;;;6276964;22;19906;-78
2021/11/03 11:58:48;;;;;;;;;;;17.10;63.30;;;;;;6276260;22;20315;-75
2021/11/03 12:01:20;;;;;;;;;;;17.20;63.40;;;;;;6274144;22;20322;-74
2021/11/03 12:04:05;;;;;;;;;;;17.20;62.80;;;;;;6274191;22;19906;-79
2021/11/03 12:06:39;;;;;;;;;;;17.30;61.80;;;;;;6275124;22;19899;-68
2021/11/03 12:09:34;;;;;;;;;;;17.40;61.80;;;;;;6275223;22;20216;-69
2021/11/03 12:12:02;;;;;;;;;;;17.50;62.20;;;;;;6268165;22;19899;-74
2021/11/03 12:15:07;;;;;;;;;;;17.60;62.50;;;;;;6277080;22;19969;-71
2021/11/03 12:17:36;;;;;;;;;;;17.70;63.10;;;;;;6243635;23;19917;-73
2021/11/03 12:20:20;;;;;;;;;;;17.80;62.20;;;;;;6243868;23;19910;-73
2021/11/03 12:22:47;;;;;;;;;;;17.90;62.60;;;;;;6218102;23;19903;-70
2021/11/03 12:25:16;;;;;;;;;;;18.00;62.50;;;;;;6243931;23;19900;-71
2021/11/03 12:27:42;;;;;;;;;;;18.10;62.60;;;;;;6243316;23;19953;-75
2021/11/03 12:30:08;;;;;;;;;;;18.20;62.60;;;;;;6218182;23;20235;-74
2021/11/03 12:32:40;;;;;;;;;;;18.30;62.60;;;;;;6243825;23;19903;-75
2021/11/03 12:35:17;;;;;;;;;;;18.30;62.50;;;;;;6218123;23;19999;-74
2021/11/03 12:37:44;;;;;;;;;;;18.40;62.70;;;;;;6218208;23;19899;-73
2021/11/03 12:40:28;;;;;;;;;;;18.50;62.60;;;;;;6243436;23;19907;-72
2021/11/03 12:43:09;;;;;;;;;;;18.60;62.80;;;;;;6243675;23;20476;-68
2021/11/03 12:45:53;;;;;;;;;;;18.70;62.50;;;;;;6243281;23;19907;-71
2021/11/03 12:48:21;;;;;;;;;;;18.80;62.10;;;;;;6260180;22;19903;-72
2021/11/03 12:50:48;;;;;;;;;;;18.80;61.70;;;;;;6276436;22;19899;-70
2021/11/03 12:53:22;;;;;;;;;;;18.90;61.70;;;;;;6276612;22;20270;-69
2021/11/03 12:55:57;;;;;;;;;;;18.90;61.70;;;;;;6276883;22;20366;-69
2021/11/03 12:58:23;;;;;;;;;;;18.90;61.60;;;;;;6276788;22;20234;-70
2021/11/03 13:00:49;;;;;;;;;;;19.00;61.20;;;;;;6276610;22;19910;-71
2021/11/03 13:03:23;;;;;;;;;;;19.00;61.10;;;;;;6276735;22;19899;-75
2021/11/03 13:05:49;;;;;;;;;;;19.00;60.40;;;;;;6275113;22;19938;-69
2021/11/03 13:08:38;;;;;;;;;;;19.00;60.00;;;;;;6276767;22;19903;-69
2021/11/03 13:11:05;;;;;;;;;;;19.00;59.80;;;;;;6274945;22;19909;-74
2021/11/03 13:13:31;;;;;;;;;;;19.00;59.60;;;;;;6275713;22;20319;-70
2021/11/03 13:16:02;;;;;;;;;;;18.90;59.40;;;;;;6276613;22;20273;-69
2021/11/03 13:18:33;;;;;;;;;;;18.90;59.50;;;;;;6276598;22;19910;-69
2021/11/03 13:20:59;;;;;;;;;;;18.90;59.70;;;;;;6276189;22;19938;-72
2021/11/03 13:23:26;;;;;;;;;;;18.90;59.70;;;;;;6276280;22;19903;-77
2021/11/03 13:25:56;;;;;;;;;;;18.80;59.70;;;;;;6276882;22;19907;-76
2021/11/03 13:28:27;;;;;;;;;;;18.80;59.40;;;;;;6276430;22;19899;-68
2021/11/03 13:31:12;;;;;;;;;;;18.70;59.40;;;;;;6276136;22;19973;-72
2021/11/03 13:33:40;;;;;;;;;;;18.70;59.30;;;;;;6259178;22;19899;-69
2021/11/03 13:36:20;;;;;;;;;;;18.60;59.50;;;;;;6274932;22;19929;-69
2021/11/03 13:38:54;;;;;;;;;;;18.60;59.20;;;;;;6276273;22;19906;-69
2021/11/03 13:41:27;;;;;;;;;;;18.50;58.80;;;;;;6276443;22;20326;-69
2021/11/03 13:44:16;;;;;;;;;;;18.50;58.70;;;;;;6276305;22;19905;-69
2021/11/03 13:46:42;;;;;;;;;;;18.50;58.20;;;;;;6276186;22;19899;-68
2021/11/03 13:49:19;;;;;;;;;;;18.50;57.80;;;;;;6276270;22;19903;-68
2021/11/03 13:51:52;;;;;;;;;;;18.40;57.50;;;;;;6276207;22;19899;-68
2021/11/03 13:54:20;;;;;;;;;;;18.30;57.70;;;;;;6275870;22;19900;-68
2021/11/03 13:56:48;;;;;;;;;;;18.30;57.70;;;;;;6276290;22;19899;-68
2021/11/03 13:59:25;;;;;;;;;;;18.30;57.60;;;;;;6274514;22;19910;-68
2021/11/03 14:01:52;;;;;;;;;;;18.20;58.00;;;;;;6275986;22;19905;-69
2021/11/03 14:04:19;;;;;;;;;;;18.20;57.70;;;;;;6276332;22;19899;-71
2021/11/03 14:07:11;;;;;;;;;;;18.20;57.80;;;;;;6275591;22;19910;-70
2021/11/03 14:09:37;;;;;;;;;;;18.20;57.60;;;;;;6276646;22;19958;-69
2021/11/03 14:12:03;;;;;;;;;;;18.20;57.70;;;;;;6275257;22;19909;-69
2021/11/03 14:14:30;;;;;;;;;;;18.20;58.10;;;;;;6276546;22;19960;-69
2021/11/03 14:16:55;;;;;;;;;;;18.10;58.00;;;;;;6275865;22;20299;-70
2021/11/03 14:19:30;;;;;;;;;;;18.10;57.90;;;;;;6277195;22;19910;-69
2021/11/03 14:21:56;;;;;;;;;;;18.10;58.20;;;;;;6277988;22;19906;-69
2021/11/03 14:24:26;;;;;;;;;;;18.00;58.30;;;;;;6278415;22;20277;-69
2021/11/03 14:26:52;;;;;;;;;;;18.00;58.30;;;;;;6276418;22;19904;-69
2021/11/03 14:29:18;;;;;;;;;;;17.90;58.30;;;;;;6277368;22;20311;-69